Metar z pełnej godziny Komunikat METAR ze strony awiacja.imgw.pl Metar G00 EPWA METAR EPWA 230200Z 15010KT 9999 BKN042 08/04 Q0995 NOSIG=